METAR Data
IDs: Format: Raw Decoded Include TAF

Data at: 1127 UTC 26 Sep 2018

K2V5 261115Z AUTO 26003KT 10SM CLR 03/00 A3030 RMK AO2
K2V5 261055Z AUTO 26003KT 10SM CLR 04/00 A3030 RMK AO2
K2V5 261035Z AUTO 25005KT 10SM CLR 04/00 A3030 RMK AO2
K2V5 261015Z AUTO 25004KT 10SM CLR 04/00 A3030 RMK AO2
K2V5 260955Z AUTO 23005KT 7SM CLR 03/00 A3030 RMK AO2
K2V5 260935Z AUTO 33003KT 2SM HZ CLR 04/00 A3030 RMK AO2 VIS 1/4V5
K2V5 260915Z AUTO 22005KT 10SM CLR 03/M01 A3031 RMK AO2
K2V5 260855Z AUTO 34004KT 10SM CLR 03/M01 A3031 RMK AO2
K2V5 260835Z AUTO 33003KT 10SM CLR 05/00 A3032 RMK AO2
K2V5 260815Z AUTO 31004KT 4SM HZ CLR 05/00 A3033 RMK AO2
K2V5 260755Z AUTO 35007KT 4SM HZ CLR 05/00 A3033 RMK AO2
K2V5 260735Z AUTO 30004KT M1/4SM SN VV000 05/00 A3033 RMK AO2
K2V5 260715Z AUTO 26003KT 10SM CLR 05/00 A3033 RMK AO2
K2V5 260655Z AUTO 24005KT 10SM CLR 04/00 A3033 RMK AO2
K2V5 260635Z AUTO 31003KT 10SM CLR 05/M01 A3032 RMK AO2
K2V5 260615Z AUTO 31004KT 10SM CLR 05/M01 A3033 RMK AO2
K2V5 260555Z AUTO 27004KT 10SM CLR 06/M01 A3033 RMK AO2
K2V5 260535Z AUTO 27004KT 5SM HZ CLR 06/M01 A3033 RMK AO2
K2V5 260515Z AUTO 27005KT 1 3/4SM HZ VV007 05/M01 A3033 RMK AO2
K2V5 260455Z AUTO 24003KT 4SM HZ CLR 06/M01 A3033 RMK AO2
K2V5 260435Z AUTO 27005KT 1/2SM HZ VV005 06/M01 A3032 RMK AO2 VIS 1/4V5
K2V5 260415Z AUTO 25003KT 5SM HZ CLR 06/M01 A3032 RMK AO2
K2V5 260355Z AUTO 25004KT 1/2SM HZ VV005 06/M01 A3031 RMK AO2 VIS M1/4V5
K2V5 260335Z AUTO 27003KT M1/4SM HZ VV000 07/M01 A3031 RMK AO2
K2V5 260315Z AUTO 23004KT 10SM CLR 06/M01 A3030 RMK AO2
K2V5 260255Z AUTO 00000KT 10SM CLR 10/M02 A3030 RMK AO2
K2V5 260235Z AUTO 00000KT 10SM CLR 08/M02 A3028 RMK AO2
K2V5 260215Z AUTO 01004KT 10SM CLR 09/M02 A3027 RMK AO2
K2V5 260155Z AUTO 03003KT 10SM CLR 08/M02 A3026 RMK AO2
K2V5 260135Z AUTO 02007KT 10SM CLR 10/M02 A3025 RMK AO2
K2V5 260115Z AUTO 02006KT 10SM CLR 10/M02 A3024 RMK AO2
K2V5 260055Z AUTO 02007KT 10SM CLR 12/M03 A3023 RMK AO2
K2V5 260035Z AUTO 03007KT 10SM CLR 15/M02 A3023 RMK AO2
K2V5 260015Z AUTO 03010KT 10SM CLR 16/M02 A3022 RMK AO2
K2V5 252355Z AUTO 02010KT 10SM CLR 17/M02 A3021 RMK AO2
K2V5 252335Z AUTO 01014G19KT 10SM CLR 18/M03 A3020 RMK AO2
K2V5 252315Z AUTO 36013G21KT 10SM CLR 18/M03 A3020 RMK AO2
K2V5 252255Z AUTO 36013G21KT 10SM CLR 18/M02 A3020 RMK AO2
K2V5 252235Z AUTO 36012G25KT 10SM CLR 18/M03 A3020 RMK AO2
K2V5 252215Z AUTO 35016G22KT 10SM CLR 19/M02 A3020 RMK AO2
K2V5 252155Z AUTO 01016G24KT 10SM CLR 19/M02 A3019 RMK AO2
K2V5 252135Z AUTO 35016G22KT 10SM CLR 19/M02 A3019 RMK AO2
K2V5 252115Z AUTO 34016G26KT 10SM CLR 20/M03 A3019 RMK AO2
K2V5 252055Z AUTO 36013G23KT 10SM CLR 19/M02 A3019 RMK AO2
K2V5 252035Z AUTO 35015G21KT 10SM CLR 20/M02 A3019 RMK AO2
K2V5 252015Z AUTO 35014G22KT 10SM CLR 20/M02 A3019 RMK AO2
K2V5 251955Z AUTO 36021G27KT 10SM CLR 18/M02 A3020 RMK AO2
K2V5 251935Z AUTO 36014G23KT 10SM CLR 19/M02 A3020 RMK AO2
K2V5 251915Z AUTO 34018G26KT 10SM CLR 18/M02 A3021 RMK AO2
K2V5 251855Z AUTO 35014G27KT 10SM CLR 18/M01 A3021 RMK AO2
K2V5 251835Z AUTO 36018G27KT 10SM CLR 18/M01 A3021 RMK AO2
K2V5 251815Z AUTO 36019G24KT 10SM CLR 18/M01 A3022 RMK AO2
K2V5 251755Z AUTO 35019G26KT 10SM CLR 18/M01 A3022 RMK AO2
K2V5 251735Z AUTO 35020G27KT 10SM CLR 17/M01 A3022 RMK AO2
K2V5 251715Z AUTO 36018G24KT 10SM CLR 17/00 A3022 RMK AO2
K2V5 251655Z AUTO 35017G25KT 10SM CLR 16/00 A3023 RMK AO2
K2V5 251635Z AUTO 34017G23KT 10SM CLR 15/01 A3023 RMK AO2
K2V5 251615Z AUTO 35018G26KT 10SM CLR 14/02 A3023 RMK AO2
K2V5 251555Z AUTO 33016G23KT 10SM CLR 13/03 A3022 RMK AO2
K2V5 251535Z AUTO 35018G25KT 10SM CLR 12/03 A3023 RMK AO2
K2V5 251515Z AUTO 34017G28KT 10SM CLR 11/03 A3022 RMK AO2
K2V5 251455Z AUTO 35021G29KT 10SM CLR 11/03 A3021 RMK AO2
K2V5 251435Z AUTO 34018G27KT 10SM CLR 10/03 A3021 RMK AO2
K2V5 251415Z AUTO 35020G26KT 10SM CLR 10/03 A3020 RMK AO2
K2V5 251355Z AUTO 34017G22KT 10SM SCT016 09/04 A3020 RMK AO2
K2V5 251335Z AUTO 34016G24KT 10SM OVC016 08/05 A3019 RMK AO2
K2V5 251315Z AUTO 34014G21KT 10SM BKN016 09/05 A3018 RMK AO2
K2V5 251255Z AUTO 34010G17KT 10SM SCT036 SCT047 09/06 A3016 RMK AO2
K2V5 251235Z AUTO 35012G19KT 10SM BKN032 OVC047 10/06 A3014 RMK AO2
K2V5 251215Z AUTO 36017G27KT 10SM SCT019 OVC030 10/06 A3014 RMK AO2
K2V5 251155Z AUTO 36022G31KT 10SM OVC017 10/06 A3013 RMK AO2
K2V5 251135Z AUTO 36026G32KT 10SM BKN015 OVC023 11/07 A3011 RMK AO2
K2V5 251115Z AUTO 35025G33KT 10SM OVC021 11/07 A3010 RMK AO2
K2V5 251055Z AUTO 35021G30KT 10SM OVC018 12/07 A3008 RMK AO2
K2V5 251035Z AUTO 34023G31KT 10SM BKN018 BKN090 12/09 A3006 RMK AO2
K2V5 251015Z AUTO 34012G22KT 10SM SCT090 12/08 A3004 RMK AO2
K2V5 250955Z AUTO 35007KT 10SM SCT027 OVC090 12/08 A3001 RMK AO2
K2V5 250935Z AUTO 34014G25KT 10SM BKN100 BKN120 12/08 A2999 RMK AO2
K2V5 250915Z AUTO 34010G18KT 10SM SCT080 12/09 A2994 RMK AO2
K2V5 250855Z AUTO 15007KT 10SM -DZ SCT049 SCT065 BKN090 12/10 A2991 RMK AO2
K2V5 250835Z AUTO 25009KT 10SM SCT050 SCT110 12/09 A2996 RMK AO2
K2V5 250815Z AUTO 08005KT 10SM SCT110 12/08 A2991 RMK AO2
K2V5 250735Z AUTO 13008KT 10SM SCT110 12/08 A2992 RMK AO2
K2V5 250715Z AUTO 13013KT 10SM -RA SCT018 SCT046 BKN110 12/08 A2991 RMK AO2
K2V5 250655Z AUTO 13005KT 10SM BKN110 13/07 A2993 RMK AO2
K2V5 250635Z AUTO 09004KT 10SM SCT120 13/07 A2993 RMK AO2
K2V5 250615Z AUTO 00000KT 10SM CLR 12/07 A2994 RMK AO2
K2V5 250555Z AUTO 08005KT 10SM CLR 12/07 A2994 RMK AO2
K2V5 250515Z AUTO 09008KT 10SM CLR 13/07 A2994 RMK AO2
K2V5 250455Z AUTO 08007KT 10SM CLR 13/07 A2994 RMK AO2
K2V5 250435Z AUTO 05008KT 10SM SCT100 13/07 A2995 RMK AO2
K2V5 250415Z AUTO 05008KT 10SM CLR 12/06 A2994 RMK AO2
K2V5 250355Z AUTO 07004KT 10SM CLR 13/06 A2994 RMK AO2
K2V5 250335Z AUTO 10003KT 10SM CLR 15/06 A2994 RMK AO2
K2V5 250315Z AUTO 11006KT 10SM CLR 17/06 A2993 RMK AO2
K2V5 250255Z AUTO 12007KT 10SM CLR 17/06 A2991 RMK AO2
K2V5 250235Z AUTO 14012KT 10SM CLR 18/06 A2990 RMK AO2
K2V5 250215Z AUTO 12008KT 10SM CLR 17/06 A2991 RMK AO2
K2V5 250155Z AUTO 13008KT 10SM CLR 16/06 A2989 RMK AO2
K2V5 250135Z AUTO 10007KT 10SM SCT110 18/06 A2990 RMK AO2
K2V5 250115Z AUTO 08005KT 10SM SCT070 SCT080 BKN110 19/06 A2991 RMK AO2
K2V5 250055Z AUTO 00000KT 10SM SCT090 BKN110 20/05 A2993 RMK AO2
K2V5 250035Z AUTO 09004KT 10SM SCT120 20/05 A2991 RMK AO2
K2V5 250015Z AUTO 09007KT 10SM CLR 21/05 A2990 RMK AO2
K2V5 242355Z AUTO 10008KT 10SM CLR 21/04 A2989 RMK AO2
K2V5 242335Z AUTO 12012KT 10SM CLR 22/04 A2988 RMK AO2